sensor_id;sensor_type;location;lat;lon;timestamp;P1;durP1;ratioP1;P2;durP2;ratioP2
36257;SDS011;22294;52.044;4.582;2023-03-05T00:01:15;11.10;;;2.20;;
36257;SDS011;22294;52.044;4.582;2023-03-05T00:03:43;9.20;;;1.85;;
36257;SDS011;22294;52.044;4.582;2023-03-05T00:06:09;8.57;;;2.22;;
36257;SDS011;22294;52.044;4.582;2023-03-05T00:08:34;7.60;;;2.10;;
36257;SDS011;22294;52.044;4.582;2023-03-05T00:11:07;6.43;;;2.00;;
36257;SDS011;22294;52.044;4.582;2023-03-05T00:13:34;7.63;;;1.70;;
36257;SDS011;22294;52.044;4.582;2023-03-05T00:16:01;9.20;;;1.42;;
36257;SDS011;22294;52.044;4.582;2023-03-05T00:18:35;5.10;;;2.25;;
36257;SDS011;22294;52.044;4.582;2023-03-05T00:21:01;7.30;;;1.30;;
36257;SDS011;22294;52.044;4.582;2023-03-05T00:23:27;9.68;;;2.10;;
36257;SDS011;22294;52.044;4.582;2023-03-05T00:25:53;10.38;;;2.50;;
36257;SDS011;22294;52.044;4.582;2023-03-05T00:28:18;7.65;;;1.50;;
36257;SDS011;22294;52.044;4.582;2023-03-05T00:30:44;11.93;;;1.85;;
36257;SDS011;22294;52.044;4.582;2023-03-05T00:33:10;4.35;;;1.58;;
36257;SDS011;22294;52.044;4.582;2023-03-05T00:35:43;6.57;;;1.58;;
36257;SDS011;22294;52.044;4.582;2023-03-05T00:38:10;9.65;;;1.60;;
36257;SDS011;22294;52.044;4.582;2023-03-05T00:40:37;7.60;;;1.55;;
36257;SDS011;22294;52.044;4.582;2023-03-05T00:43:04;4.55;;;1.50;;
36257;SDS011;22294;52.044;4.582;2023-03-05T00:45:31;9.20;;;1.70;;
36257;SDS011;22294;52.044;4.582;2023-03-05T00:47:57;9.57;;;1.60;;
36257;SDS011;22294;52.044;4.582;2023-03-05T00:50:22;10.32;;;1.90;;
36257;SDS011;22294;52.044;4.582;2023-03-05T00:52:47;8.40;;;1.98;;
36257;SDS011;22294;52.044;4.582;2023-03-05T00:55:13;9.15;;;1.77;;
36257;SDS011;22294;52.044;4.582;2023-03-05T00:57:38;6.72;;;2.03;;
36257;SDS011;22294;52.044;4.582;2023-03-05T01:00:04;8.77;;;2.03;;
36257;SDS011;22294;52.044;4.582;2023-03-05T01:02:30;12.88;;;2.28;;
36257;SDS011;22294;52.044;4.582;2023-03-05T01:04:56;7.38;;;1.95;;
36257;SDS011;22294;52.044;4.582;2023-03-05T01:07:21;6.32;;;2.00;;
36257;SDS011;22294;52.044;4.582;2023-03-05T01:09:46;13.82;;;2.33;;
36257;SDS011;22294;52.044;4.582;2023-03-05T01:12:12;8.95;;;1.73;;
36257;SDS011;22294;52.044;4.582;2023-03-05T01:14:37;9.88;;;2.00;;
36257;SDS011;22294;52.044;4.582;2023-03-05T01:17:02;12.00;;;1.98;;
36257;SDS011;22294;52.044;4.582;2023-03-05T01:19:28;8.00;;;1.95;;
36257;SDS011;22294;52.044;4.582;2023-03-05T01:21:54;8.93;;;1.73;;
36257;SDS011;22294;52.044;4.582;2023-03-05T01:24:19;8.88;;;1.90;;
36257;SDS011;22294;52.044;4.582;2023-03-05T01:26:45;9.45;;;2.35;;
36257;SDS011;22294;52.044;4.582;2023-03-05T01:29:11;7.47;;;1.77;;
36257;SDS011;22294;52.044;4.582;2023-03-05T01:31:36;7.72;;;1.60;;
36257;SDS011;22294;52.044;4.582;2023-03-05T01:34:02;6.43;;;1.88;;
36257;SDS011;22294;52.044;4.582;2023-03-05T01:36:27;10.88;;;1.83;;
36257;SDS011;22294;52.044;4.582;2023-03-05T01:38:53;10.68;;;2.00;;
36257;SDS011;22294;52.044;4.582;2023-03-05T01:41:18;8.50;;;2.80;;
36257;SDS011;22294;52.044;4.582;2023-03-05T01:43:45;5.93;;;2.30;;
36257;SDS011;22294;52.044;4.582;2023-03-05T01:51:31;9.02;;;2.78;;
36257;SDS011;22294;52.044;4.582;2023-03-05T01:54:01;12.05;;;2.95;;
36257;SDS011;22294;52.044;4.582;2023-03-05T01:56:29;12.90;;;3.08;;
36257;SDS011;22294;52.044;4.582;2023-03-05T01:58:55;9.25;;;2.92;;
36257;SDS011;22294;52.044;4.582;2023-03-05T02:01:27;9.35;;;2.80;;
36257;SDS011;22294;52.044;4.582;2023-03-05T02:03:54;7.32;;;2.42;;
36257;SDS011;22294;52.044;4.582;2023-03-05T02:06:20;10.95;;;2.80;;
36257;SDS011;22294;52.044;4.582;2023-03-05T02:08:45;9.30;;;1.83;;
36257;SDS011;22294;52.044;4.582;2023-03-05T02:11:10;8.88;;;2.30;;
36257;SDS011;22294;52.044;4.582;2023-03-05T02:13:36;7.55;;;1.92;;
36257;SDS011;22294;52.044;4.582;2023-03-05T02:16:05;5.95;;;2.00;;
36257;SDS011;22294;52.044;4.582;2023-03-05T02:18:30;11.93;;;2.20;;
36257;SDS011;22294;52.044;4.582;2023-03-05T02:23:25;8.60;;;1.73;;
36257;SDS011;22294;52.044;4.582;2023-03-05T02:25:52;7.47;;;1.90;;
36257;SDS011;22294;52.044;4.582;2023-03-05T02:28:22;6.78;;;1.70;;
36257;SDS011;22294;52.044;4.582;2023-03-05T02:30:52;7.90;;;1.90;;
36257;SDS011;22294;52.044;4.582;2023-03-05T02:33:17;7.18;;;1.80;;
36257;SDS011;22294;52.044;4.582;2023-03-05T02:35:44;7.03;;;1.58;;
36257;SDS011;22294;52.044;4.582;2023-03-05T02:38:10;7.43;;;1.90;;
36257;SDS011;22294;52.044;4.582;2023-03-05T02:40:40;6.75;;;2.03;;
36257;SDS011;22294;52.044;4.582;2023-03-05T02:43:06;8.38;;;1.90;;
36257;SDS011;22294;52.044;4.582;2023-03-05T02:45:31;7.57;;;2.80;;
36257;SDS011;22294;52.044;4.582;2023-03-05T02:47:57;7.03;;;1.98;;
36257;SDS011;22294;52.044;4.582;2023-03-05T02:50:22;7.90;;;2.40;;
36257;SDS011;22294;52.044;4.582;2023-03-05T02:52:48;8.77;;;2.65;;
36257;SDS011;22294;52.044;4.582;2023-03-05T02:55:14;7.75;;;2.50;;
36257;SDS011;22294;52.044;4.582;2023-03-05T02:57:39;4.57;;;2.10;;
36257;SDS011;22294;52.044;4.582;2023-03-05T03:00:05;10.32;;;2.85;;
36257;SDS011;22294;52.044;4.582;2023-03-05T03:02:31;7.45;;;2.15;;
36257;SDS011;22294;52.044;4.582;2023-03-05T03:04:56;10.35;;;2.28;;
36257;SDS011;22294;52.044;4.582;2023-03-05T03:07:21;10.07;;;2.38;;
36257;SDS011;22294;52.044;4.582;2023-03-05T03:09:47;7.25;;;2.70;;
36257;SDS011;22294;52.044;4.582;2023-03-05T03:12:13;7.28;;;2.22;;
36257;SDS011;22294;52.044;4.582;2023-03-05T03:14:39;8.32;;;1.70;;
36257;SDS011;22294;52.044;4.582;2023-03-05T03:17:07;6.88;;;1.88;;
36257;SDS011;22294;52.044;4.582;2023-03-05T03:19:34;5.50;;;1.85;;
36257;SDS011;22294;52.044;4.582;2023-03-05T03:22:00;10.20;;;2.80;;
36257;SDS011;22294;52.044;4.582;2023-03-05T03:24:25;6.07;;;2.35;;
36257;SDS011;22294;52.044;4.582;2023-03-05T03:26:51;8.13;;;2.10;;
36257;SDS011;22294;52.044;4.582;2023-03-05T03:29:16;7.10;;;1.98;;
36257;SDS011;22294;52.044;4.582;2023-03-05T03:31:42;10.10;;;2.10;;
36257;SDS011;22294;52.044;4.582;2023-03-05T03:34:09;9.30;;;2.58;;
36257;SDS011;22294;52.044;4.582;2023-03-05T03:36:39;13.07;;;2.78;;
36257;SDS011;22294;52.044;4.582;2023-03-05T03:39:05;10.52;;;2.78;;
36257;SDS011;22294;52.044;4.582;2023-03-05T03:41:33;8.98;;;2.65;;
36257;SDS011;22294;52.044;4.582;2023-03-05T03:43:59;7.95;;;2.70;;
36257;SDS011;22294;52.044;4.582;2023-03-05T03:46:26;10.05;;;2.00;;
36257;SDS011;22294;52.044;4.582;2023-03-05T03:48:52;10.15;;;2.30;;
36257;SDS011;22294;52.044;4.582;2023-03-05T03:51:17;7.53;;;2.15;;
36257;SDS011;22294;52.044;4.582;2023-03-05T03:53:42;10.18;;;2.00;;
36257;SDS011;22294;52.044;4.582;2023-03-05T03:56:08;7.38;;;1.50;;
36257;SDS011;22294;52.044;4.582;2023-03-05T03:58:33;7.53;;;1.75;;
36257;SDS011;22294;52.044;4.582;2023-03-05T04:00:59;5.70;;;1.77;;
36257;SDS011;22294;52.044;4.582;2023-03-05T04:03:24;5.85;;;1.35;;
36257;SDS011;22294;52.044;4.582;2023-03-05T04:05:49;3.88;;;1.33;;
36257;SDS011;22294;52.044;4.582;2023-03-05T04:08:14;8.23;;;1.70;;
36257;SDS011;22294;52.044;4.582;2023-03-05T04:10:40;7.00;;;1.27;;
36257;SDS011;22294;52.044;4.582;2023-03-05T04:13:05;10.02;;;1.48;;
36257;SDS011;22294;52.044;4.582;2023-03-05T04:15:31;5.97;;;1.10;;
36257;SDS011;22294;52.044;4.582;2023-03-05T04:17:57;4.43;;;1.63;;
36257;SDS011;22294;52.044;4.582;2023-03-05T04:20:23;4.47;;;1.00;;
36257;SDS011;22294;52.044;4.582;2023-03-05T04:22:48;8.63;;;1.25;;
36257;SDS011;22294;52.044;4.582;2023-03-05T04:25:14;6.72;;;1.13;;
36257;SDS011;22294;52.044;4.582;2023-03-05T04:27:39;6.05;;;1.20;;
36257;SDS011;22294;52.044;4.582;2023-03-05T04:30:05;5.30;;;1.20;;
36257;SDS011;22294;52.044;4.582;2023-03-05T04:32:32;5.05;;;1.10;;
36257;SDS011;22294;52.044;4.582;2023-03-05T04:34:57;7.05;;;1.23;;
36257;SDS011;22294;52.044;4.582;2023-03-05T04:37:23;6.55;;;1.23;;
36257;SDS011;22294;52.044;4.582;2023-03-05T04:39:50;7.93;;;1.17;;
36257;SDS011;22294;52.044;4.582;2023-03-05T04:42:16;3.33;;;0.82;;
36257;SDS011;22294;52.044;4.582;2023-03-05T04:44:43;5.72;;;1.13;;
36257;SDS011;22294;52.044;4.582;2023-03-05T04:47:08;5.68;;;1.02;;
36257;SDS011;22294;52.044;4.582;2023-03-05T04:49:33;2.65;;;1.20;;
36257;SDS011;22294;52.044;4.582;2023-03-05T04:51:59;4.10;;;1.00;;
36257;SDS011;22294;52.044;4.582;2023-03-05T04:54:24;5.97;;;0.88;;
36257;SDS011;22294;52.044;4.582;2023-03-05T04:56:49;2.63;;;0.85;;
36257;SDS011;22294;52.044;4.582;2023-03-05T04:59:15;8.10;;;1.17;;
36257;SDS011;22294;52.044;4.582;2023-03-05T05:01:40;5.93;;;1.52;;
36257;SDS011;22294;52.044;4.582;2023-03-05T05:04:05;5.13;;;1.33;;
36257;SDS011;22294;52.044;4.582;2023-03-05T05:06:31;8.00;;;1.55;;
36257;SDS011;22294;52.044;4.582;2023-03-05T05:08:56;1.95;;;0.68;;
36257;SDS011;22294;52.044;4.582;2023-03-05T05:11:22;4.57;;;0.75;;
36257;SDS011;22294;52.044;4.582;2023-03-05T05:13:47;1.73;;;0.65;;
36257;SDS011;22294;52.044;4.582;2023-03-05T05:16:12;5.18;;;0.60;;
36257;SDS011;22294;52.044;4.582;2023-03-05T05:18:39;2.20;;;0.80;;
36257;SDS011;22294;52.044;4.582;2023-03-05T05:21:08;4.43;;;0.80;;
36257;SDS011;22294;52.044;4.582;2023-03-05T05:23:35;1.42;;;0.43;;
36257;SDS011;22294;52.044;4.582;2023-03-05T05:26:01;4.45;;;0.93;;
36257;SDS011;22294;52.044;4.582;2023-03-05T05:28:28;4.57;;;0.65;;
36257;SDS011;22294;52.044;4.582;2023-03-05T05:30:54;2.85;;;0.60;;
36257;SDS011;22294;52.044;4.582;2023-03-05T05:33:20;2.65;;;0.80;;
36257;SDS011;22294;52.044;4.582;2023-03-05T05:35:45;4.38;;;0.60;;
36257;SDS011;22294;52.044;4.582;2023-03-05T05:38:10;3.63;;;0.88;;
36257;SDS011;22294;52.044;4.582;2023-03-05T05:40:36;3.25;;;1.30;;
36257;SDS011;22294;52.044;4.582;2023-03-05T05:43:01;2.83;;;1.17;;
36257;SDS011;22294;52.044;4.582;2023-03-05T05:45:27;2.10;;;0.60;;
36257;SDS011;22294;52.044;4.582;2023-03-05T05:47:52;5.18;;;0.82;;
36257;SDS011;22294;52.044;4.582;2023-03-05T05:50:18;4.70;;;1.13;;
36257;SDS011;22294;52.044;4.582;2023-03-05T05:52:44;1.95;;;1.10;;
36257;SDS011;22294;52.044;4.582;2023-03-05T05:55:10;2.60;;;0.93;;
36257;SDS011;22294;52.044;4.582;2023-03-05T05:57:35;5.28;;;1.58;;
36257;SDS011;22294;52.044;4.582;2023-03-05T06:00:02;2.00;;;0.80;;
36257;SDS011;22294;52.044;4.582;2023-03-05T06:02:30;1.97;;;0.60;;
36257;SDS011;22294;52.044;4.582;2023-03-05T06:04:56;2.67;;;0.82;;
36257;SDS011;22294;52.044;4.582;2023-03-05T06:07:21;4.53;;;0.80;;
36257;SDS011;22294;52.044;4.582;2023-03-05T06:09:47;3.78;;;0.90;;
36257;SDS011;22294;52.044;4.582;2023-03-05T06:12:12;4.00;;;0.70;;
36257;SDS011;22294;52.044;4.582;2023-03-05T06:14:38;3.53;;;1.10;;
36257;SDS011;22294;52.044;4.582;2023-03-05T06:17:03;4.57;;;1.35;;
36257;SDS011;22294;52.044;4.582;2023-03-05T06:19:29;9.65;;;1.60;;
36257;SDS011;22294;52.044;4.582;2023-03-05T06:21:54;5.07;;;1.30;;
36257;SDS011;22294;52.044;4.582;2023-03-05T06:24:19;4.63;;;0.70;;
36257;SDS011;22294;52.044;4.582;2023-03-05T06:26:46;5.00;;;0.80;;
36257;SDS011;22294;52.044;4.582;2023-03-05T06:29:12;4.75;;;1.00;;
36257;SDS011;22294;52.044;4.582;2023-03-05T06:31:38;4.93;;;1.40;;
36257;SDS011;22294;52.044;4.582;2023-03-05T06:34:03;4.60;;;1.05;;
36257;SDS011;22294;52.044;4.582;2023-03-05T06:36:29;6.47;;;1.15;;
36257;SDS011;22294;52.044;4.582;2023-03-05T06:38:55;6.38;;;0.90;;
36257;SDS011;22294;52.044;4.582;2023-03-05T06:41:22;3.65;;;0.82;;
36257;SDS011;22294;52.044;4.582;2023-03-05T06:43:49;3.90;;;1.00;;
36257;SDS011;22294;52.044;4.582;2023-03-05T06:46:18;3.38;;;0.90;;
36257;SDS011;22294;52.044;4.582;2023-03-05T06:48:46;4.72;;;1.75;;
36257;SDS011;22294;52.044;4.582;2023-03-05T06:51:13;7.68;;;1.17;;
36257;SDS011;22294;52.044;4.582;2023-03-05T06:53:46;3.13;;;1.40;;
36257;SDS011;22294;52.044;4.582;2023-03-05T06:56:12;4.90;;;1.42;;
36257;SDS011;22294;52.044;4.582;2023-03-05T06:58:40;3.83;;;1.20;;
36257;SDS011;22294;52.044;4.582;2023-03-05T07:01:06;3.72;;;1.42;;
36257;SDS011;22294;52.044;4.582;2023-03-05T07:03:32;2.63;;;1.05;;
36257;SDS011;22294;52.044;4.582;2023-03-05T07:06:01;4.75;;;1.02;;
36257;SDS011;22294;52.044;4.582;2023-03-05T07:08:27;4.05;;;1.10;;
36257;SDS011;22294;52.044;4.582;2023-03-05T07:10:53;2.97;;;0.88;;
36257;SDS011;22294;52.044;4.582;2023-03-05T07:13:18;3.00;;;0.93;;
36257;SDS011;22294;52.044;4.582;2023-03-05T07:15:43;6.25;;;1.33;;
36257;SDS011;22294;52.044;4.582;2023-03-05T07:18:08;4.95;;;2.22;;
36257;SDS011;22294;52.044;4.582;2023-03-05T07:20:34;3.85;;;2.03;;
36257;SDS011;22294;52.044;4.582;2023-03-05T07:23:00;6.18;;;2.35;;
36257;SDS011;22294;52.044;4.582;2023-03-05T07:25:26;4.55;;;1.80;;
36257;SDS011;22294;52.044;4.582;2023-03-05T07:27:51;6.97;;;1.70;;
36257;SDS011;22294;52.044;4.582;2023-03-05T07:30:17;11.18;;;1.88;;
36257;SDS011;22294;52.044;4.582;2023-03-05T07:32:43;5.07;;;0.95;;
36257;SDS011;22294;52.044;4.582;2023-03-05T07:35:08;5.13;;;0.70;;
36257;SDS011;22294;52.044;4.582;2023-03-05T07:37:33;4.43;;;0.68;;
36257;SDS011;22294;52.044;4.582;2023-03-05T07:39:59;4.25;;;0.75;;
36257;SDS011;22294;52.044;4.582;2023-03-05T07:42:24;3.92;;;0.70;;
36257;SDS011;22294;52.044;4.582;2023-03-05T07:44:49;5.95;;;0.90;;
36257;SDS011;22294;52.044;4.582;2023-03-05T07:47:15;4.95;;;0.95;;
36257;SDS011;22294;52.044;4.582;2023-03-05T07:49:40;3.35;;;0.98;;
36257;SDS011;22294;52.044;4.582;2023-03-05T07:52:06;5.78;;;1.00;;
36257;SDS011;22294;52.044;4.582;2023-03-05T07:54:33;2.63;;;0.55;;
36257;SDS011;22294;52.044;4.582;2023-03-05T07:57:02;2.92;;;0.50;;
36257;SDS011;22294;52.044;4.582;2023-03-05T07:59:28;4.32;;;1.15;;
36257;SDS011;22294;52.044;4.582;2023-03-05T08:01:53;2.60;;;0.70;;
36257;SDS011;22294;52.044;4.582;2023-03-05T08:04:18;4.38;;;0.77;;
36257;SDS011;22294;52.044;4.582;2023-03-05T08:06:44;3.10;;;0.75;;
36257;SDS011;22294;52.044;4.582;2023-03-05T08:09:10;2.03;;;0.60;;
36257;SDS011;22294;52.044;4.582;2023-03-05T08:11:36;1.00;;;0.60;;
36257;SDS011;22294;52.044;4.582;2023-03-05T08:14:03;4.68;;;0.80;;
36257;SDS011;22294;52.044;4.582;2023-03-05T08:16:28;4.18;;;0.90;;
36257;SDS011;22294;52.044;4.582;2023-03-05T08:18:54;4.68;;;1.00;;
36257;SDS011;22294;52.044;4.582;2023-03-05T08:21:31;4.47;;;1.40;;
36257;SDS011;22294;52.044;4.582;2023-03-05T08:23:58;3.25;;;0.90;;
36257;SDS011;22294;52.044;4.582;2023-03-05T08:26:26;3.92;;;0.73;;
36257;SDS011;22294;52.044;4.582;2023-03-05T08:28:53;3.25;;;1.10;;
36257;SDS011;22294;52.044;4.582;2023-03-05T08:31:20;1.60;;;0.70;;
36257;SDS011;22294;52.044;4.582;2023-03-05T08:33:50;3.25;;;1.30;;
36257;SDS011;22294;52.044;4.582;2023-03-05T08:38:42;2.10;;;1.00;;
36257;SDS011;22294;52.044;4.582;2023-03-05T08:41:08;1.33;;;0.90;;
36257;SDS011;22294;52.044;4.582;2023-03-05T08:43:34;3.58;;;1.63;;
36257;SDS011;22294;52.044;4.582;2023-03-05T08:46:00;4.25;;;1.38;;
36257;SDS011;22294;52.044;4.582;2023-03-05T08:48:26;3.15;;;1.10;;
36257;SDS011;22294;52.044;4.582;2023-03-05T08:50:52;4.88;;;0.80;;
36257;SDS011;22294;52.044;4.582;2023-03-05T08:53:18;3.13;;;0.90;;
36257;SDS011;22294;52.044;4.582;2023-03-05T08:55:43;2.10;;;0.82;;
36257;SDS011;22294;52.044;4.582;2023-03-05T08:58:17;4.97;;;1.67;;
36257;SDS011;22294;52.044;4.582;2023-03-05T09:00:43;5.60;;;1.52;;
36257;SDS011;22294;52.044;4.582;2023-03-05T09:03:08;4.30;;;1.08;;
36257;SDS011;22294;52.044;4.582;2023-03-05T09:05:35;4.38;;;1.50;;
36257;SDS011;22294;52.044;4.582;2023-03-05T09:08:00;6.20;;;1.30;;
36257;SDS011;22294;52.044;4.582;2023-03-05T09:10:25;3.03;;;1.02;;
36257;SDS011;22294;52.044;4.582;2023-03-05T09:12:51;4.80;;;1.00;;
36257;SDS011;22294;52.044;4.582;2023-03-05T09:15:16;3.45;;;1.20;;
36257;SDS011;22294;52.044;4.582;2023-03-05T09:17:41;3.30;;;1.00;;
36257;SDS011;22294;52.044;4.582;2023-03-05T09:20:10;3.65;;;1.08;;
36257;SDS011;22294;52.044;4.582;2023-03-05T09:22:37;8.75;;;1.08;;
36257;SDS011;22294;52.044;4.582;2023-03-05T09:25:02;4.15;;;0.88;;
36257;SDS011;22294;52.044;4.582;2023-03-05T09:27:28;2.10;;;1.00;;
36257;SDS011;22294;52.044;4.582;2023-03-05T09:29:53;1.25;;;0.60;;
36257;SDS011;22294;52.044;4.582;2023-03-05T09:32:19;2.85;;;1.35;;
36257;SDS011;22294;52.044;4.582;2023-03-05T09:34:44;5.20;;;0.90;;
36257;SDS011;22294;52.044;4.582;2023-03-05T09:37:10;5.95;;;1.05;;
36257;SDS011;22294;52.044;4.582;2023-03-05T09:39:36;5.30;;;0.90;;
36257;SDS011;22294;52.044;4.582;2023-03-05T09:47:39;2.65;;;1.42;;
36257;SDS011;22294;52.044;4.582;2023-03-05T09:50:22;3.53;;;1.67;;
36257;SDS011;22294;52.044;4.582;2023-03-05T09:53:12;3.45;;;1.40;;
36257;SDS011;22294;52.044;4.582;2023-03-05T09:55:43;4.60;;;1.20;;
36257;SDS011;22294;52.044;4.582;2023-03-05T09:58:12;2.28;;;0.88;;
36257;SDS011;22294;52.044;4.582;2023-03-05T10:00:47;10.27;;;1.40;;
36257;SDS011;22294;52.044;4.582;2023-03-05T10:03:16;3.53;;;1.38;;
36257;SDS011;22294;52.044;4.582;2023-03-05T10:08:44;1.88;;;0.75;;
36257;SDS011;22294;52.044;4.582;2023-03-05T10:13:59;0.52;;;0.47;;
36257;SDS011;22294;52.044;4.582;2023-03-05T10:19:21;0.63;;;0.30;;
36257;SDS011;22294;52.044;4.582;2023-03-05T10:27:19;0.88;;;0.30;;
36257;SDS011;22294;52.044;4.582;2023-03-05T10:30:04;0.52;;;0.40;;
36257;SDS011;22294;52.044;4.582;2023-03-05T10:32:43;1.00;;;0.47;;
36257;SDS011;22294;52.044;4.582;2023-03-05T10:37:58;0.77;;;0.70;;
36257;SDS011;22294;52.044;4.582;2023-03-05T10:46:16;3.30;;;1.10;;
36257;SDS011;22294;52.044;4.582;2023-03-05T10:48:54;3.70;;;0.80;;
36257;SDS011;22294;52.044;4.582;2023-03-05T10:51:33;3.00;;;0.90;;
36257;SDS011;22294;52.044;4.582;2023-03-05T10:54:18;3.65;;;0.80;;
36257;SDS011;22294;52.044;4.582;2023-03-05T10:59:50;4.15;;;0.60;;
36257;SDS011;22294;52.044;4.582;2023-03-05T11:02:18;1.20;;;0.65;;
36257;SDS011;22294;52.044;4.582;2023-03-05T11:04:45;2.63;;;0.80;;
36257;SDS011;22294;52.044;4.582;2023-03-05T11:12:39;3.90;;;0.77;;
36257;SDS011;22294;52.044;4.582;2023-03-05T11:17:43;1.50;;;0.73;;
36257;SDS011;22294;52.044;4.582;2023-03-05T11:28:28;2.83;;;1.00;;
36257;SDS011;22294;52.044;4.582;2023-03-05T11:39:17;2.07;;;0.50;;
36257;SDS011;22294;52.044;4.582;2023-03-05T11:41:52;3.00;;;0.82;;
36257;SDS011;22294;52.044;4.582;2023-03-05T11:44:26;4.35;;;1.55;;
36257;SDS011;22294;52.044;4.582;2023-03-05T11:47:08;3.95;;;0.80;;
36257;SDS011;22294;52.044;4.582;2023-03-05T11:50:04;3.45;;;0.70;;
36257;SDS011;22294;52.044;4.582;2023-03-05T11:52:58;6.95;;;0.60;;
36257;SDS011;22294;52.044;4.582;2023-03-05T11:55:39;2.30;;;0.85;;
36257;SDS011;22294;52.044;4.582;2023-03-05T11:58:25;1.75;;;1.27;;
36257;SDS011;22294;52.044;4.582;2023-03-05T12:00:51;4.20;;;0.88;;
36257;SDS011;22294;52.044;4.582;2023-03-05T12:03:21;5.88;;;0.80;;
36257;SDS011;22294;52.044;4.582;2023-03-05T12:05:50;1.60;;;0.40;;
36257;SDS011;22294;52.044;4.582;2023-03-05T12:08:23;1.95;;;0.52;;
36257;SDS011;22294;52.044;4.582;2023-03-05T12:10:53;2.63;;;0.65;;
36257;SDS011;22294;52.044;4.582;2023-03-05T12:13:25;3.20;;;0.70;;
36257;SDS011;22294;52.044;4.582;2023-03-05T12:24:01;0.75;;;0.45;;
36257;SDS011;22294;52.044;4.582;2023-03-05T12:31:53;6.47;;;1.15;;
36257;SDS011;22294;52.044;4.582;2023-03-05T12:34:52;3.03;;;0.45;;
36257;SDS011;22294;52.044;4.582;2023-03-05T12:39:48;2.35;;;0.88;;
36257;SDS011;22294;52.044;4.582;2023-03-05T12:47:43;2.10;;;0.55;;
36257;SDS011;22294;52.044;4.582;2023-03-05T12:52:51;2.45;;;0.50;;
36257;SDS011;22294;52.044;4.582;2023-03-05T12:58:18;1.27;;;0.40;;
36257;SDS011;22294;52.044;4.582;2023-03-05T13:03:27;3.65;;;1.08;;
36257;SDS011;22294;52.044;4.582;2023-03-05T13:05:56;4.63;;;1.30;;
36257;SDS011;22294;52.044;4.582;2023-03-05T13:08:34;3.47;;;1.05;;
36257;SDS011;22294;52.044;4.582;2023-03-05T13:11:08;3.30;;;1.40;;
36257;SDS011;22294;52.044;4.582;2023-03-05T13:13:45;4.90;;;1.10;;
36257;SDS011;22294;52.044;4.582;2023-03-05T13:16:24;3.03;;;0.68;;
36257;SDS011;22294;52.044;4.582;2023-03-05T13:18:53;3.40;;;0.50;;
36257;SDS011;22294;52.044;4.582;2023-03-05T13:21:23;4.00;;;0.82;;
36257;SDS011;22294;52.044;4.582;2023-03-05T13:26:22;1.63;;;0.70;;
36257;SDS011;22294;52.044;4.582;2023-03-05T13:31:58;2.17;;;1.02;;
36257;SDS011;22294;52.044;4.582;2023-03-05T13:34:26;3.28;;;1.30;;
36257;SDS011;22294;52.044;4.582;2023-03-05T13:37:00;5.25;;;1.70;;
36257;SDS011;22294;52.044;4.582;2023-03-05T13:39:36;2.40;;;1.13;;
36257;SDS011;22294;52.044;4.582;2023-03-05T13:42:14;3.85;;;1.00;;
36257;SDS011;22294;52.044;4.582;2023-03-05T13:44:41;1.95;;;0.85;;
36257;SDS011;22294;52.044;4.582;2023-03-05T13:47:08;3.90;;;1.67;;
36257;SDS011;22294;52.044;4.582;2023-03-05T13:49:34;2.45;;;1.02;;
36257;SDS011;22294;52.044;4.582;2023-03-05T13:51:59;5.35;;;1.30;;
36257;SDS011;22294;52.044;4.582;2023-03-05T13:54:26;4.20;;;1.08;;
36257;SDS011;22294;52.044;4.582;2023-03-05T13:59:23;1.25;;;0.70;;
36257;SDS011;22294;52.044;4.582;2023-03-05T14:01:51;6.75;;;1.52;;
36257;SDS011;22294;52.044;4.582;2023-03-05T14:04:18;4.22;;;1.90;;
36257;SDS011;22294;52.044;4.582;2023-03-05T14:06:59;3.35;;;1.25;;
36257;SDS011;22294;52.044;4.582;2023-03-05T14:09:30;3.50;;;0.73;;
36257;SDS011;22294;52.044;4.582;2023-03-05T14:14:46;6.00;;;2.42;;
36257;SDS011;22294;52.044;4.582;2023-03-05T14:17:19;2.63;;;0.88;;
36257;SDS011;22294;52.044;4.582;2023-03-05T14:19:51;3.53;;;0.85;;
36257;SDS011;22294;52.044;4.582;2023-03-05T14:22:30;2.85;;;0.73;;
36257;SDS011;22294;52.044;4.582;2023-03-05T14:24:56;3.05;;;0.90;;
36257;SDS011;22294;52.044;4.582;2023-03-05T14:27:22;2.95;;;0.90;;
36257;SDS011;22294;52.044;4.582;2023-03-05T14:29:47;3.97;;;1.00;;
36257;SDS011;22294;52.044;4.582;2023-03-05T14:32:18;3.38;;;0.82;;
36257;SDS011;22294;52.044;4.582;2023-03-05T14:34:50;2.10;;;0.85;;
36257;SDS011;22294;52.044;4.582;2023-03-05T14:37:21;1.90;;;0.60;;
36257;SDS011;22294;52.044;4.582;2023-03-05T14:39:52;3.40;;;1.23;;
36257;SDS011;22294;52.044;4.582;2023-03-05T14:47:36;5.95;;;2.65;;
36257;SDS011;22294;52.044;4.582;2023-03-05T14:50:01;2.85;;;2.17;;
36257;SDS011;22294;52.044;4.582;2023-03-05T14:52:28;3.90;;;1.92;;
36257;SDS011;22294;52.044;4.582;2023-03-05T14:54:55;3.35;;;1.83;;
36257;SDS011;22294;52.044;4.582;2023-03-05T14:57:21;5.68;;;2.50;;
36257;SDS011;22294;52.044;4.582;2023-03-05T14:59:49;3.33;;;0.70;;
36257;SDS011;22294;52.044;4.582;2023-03-05T15:02:18;3.20;;;0.80;;
36257;SDS011;22294;52.044;4.582;2023-03-05T15:04:45;5.78;;;1.00;;
36257;SDS011;22294;52.044;4.582;2023-03-05T15:07:28;2.92;;;0.93;;
36257;SDS011;22294;52.044;4.582;2023-03-05T15:09:55;5.32;;;0.88;;
36257;SDS011;22294;52.044;4.582;2023-03-05T15:12:21;2.50;;;0.50;;
36257;SDS011;22294;52.044;4.582;2023-03-05T15:14:50;3.50;;;1.48;;
36257;SDS011;22294;52.044;4.582;2023-03-05T15:17:32;3.22;;;1.25;;
36257;SDS011;22294;52.044;4.582;2023-03-05T15:19:59;5.13;;;1.15;;
36257;SDS011;22294;52.044;4.582;2023-03-05T15:22:25;2.58;;;1.13;;
36257;SDS011;22294;52.044;4.582;2023-03-05T15:24:50;5.82;;;0.95;;
36257;SDS011;22294;52.044;4.582;2023-03-05T15:27:16;6.93;;;0.88;;
36257;SDS011;22294;52.044;4.582;2023-03-05T15:29:42;2.83;;;0.77;;
36257;SDS011;22294;52.044;4.582;2023-03-05T15:32:07;7.28;;;2.85;;
36257;SDS011;22294;52.044;4.582;2023-03-05T15:34:33;3.03;;;1.05;;
36257;SDS011;22294;52.044;4.582;2023-03-05T15:36:59;2.53;;;0.70;;
36257;SDS011;22294;52.044;4.582;2023-03-05T15:39:25;1.35;;;0.70;;
36257;SDS011;22294;52.044;4.582;2023-03-05T15:41:50;2.45;;;0.90;;
36257;SDS011;22294;52.044;4.582;2023-03-05T15:44:16;4.65;;;1.00;;
36257;SDS011;22294;52.044;4.582;2023-03-05T15:46:42;2.70;;;0.73;;
36257;SDS011;22294;52.044;4.582;2023-03-05T15:49:07;2.22;;;0.82;;
36257;SDS011;22294;52.044;4.582;2023-03-05T15:51:33;5.13;;;0.93;;
36257;SDS011;22294;52.044;4.582;2023-03-05T15:53:58;1.73;;;0.65;;
36257;SDS011;22294;52.044;4.582;2023-03-05T15:56:23;3.42;;;0.80;;
36257;SDS011;22294;52.044;4.582;2023-03-05T15:58:49;1.83;;;1.10;;
36257;SDS011;22294;52.044;4.582;2023-03-05T16:01:17;2.38;;;0.73;;
36257;SDS011;22294;52.044;4.582;2023-03-05T16:03:44;2.78;;;0.70;;
36257;SDS011;22294;52.044;4.582;2023-03-05T16:06:10;2.83;;;0.60;;
36257;SDS011;22294;52.044;4.582;2023-03-05T16:08:36;4.47;;;1.10;;
36257;SDS011;22294;52.044;4.582;2023-03-05T16:11:04;3.25;;;1.05;;
36257;SDS011;22294;52.044;4.582;2023-03-05T16:13:30;3.58;;;1.20;;
36257;SDS011;22294;52.044;4.582;2023-03-05T16:15:56;3.22;;;1.63;;
36257;SDS011;22294;52.044;4.582;2023-03-05T16:18:23;4.28;;;1.40;;
36257;SDS011;22294;52.044;4.582;2023-03-05T16:20:48;7.80;;;3.08;;
36257;SDS011;22294;52.044;4.582;2023-03-05T16:23:14;3.58;;;2.10;;
36257;SDS011;22294;52.044;4.582;2023-03-05T16:25:40;4.13;;;1.70;;
36257;SDS011;22294;52.044;4.582;2023-03-05T16:28:06;3.25;;;1.20;;
36257;SDS011;22294;52.044;4.582;2023-03-05T16:30:32;2.58;;;1.05;;
36257;SDS011;22294;52.044;4.582;2023-03-05T16:32:58;4.70;;;2.55;;
36257;SDS011;22294;52.044;4.582;2023-03-05T16:35:24;2.90;;;1.17;;
36257;SDS011;22294;52.044;4.582;2023-03-05T16:37:49;4.35;;;1.20;;
36257;SDS011;22294;52.044;4.582;2023-03-05T16:40:15;5.10;;;1.38;;